METAR Formatted Surface Weather Observation
Issued by NWS

Home | Current Version | Previous Version | Text Only | Print | Product List | Glossary On
Versions: 1
SAUS44 KBMX 051554
METAR KHEY 051553Z AUTO 05012KT 10SM OVC021 21/16 A2990 RMK AO2
SLP011 T02110156 PNO is the U.S. government's official web portal to all federal, state and local government web resources and services.